GS63A EGJB-EGJA

Flight info

Callsign GS63A
Flight time 0h 13m
Altitude 3000
Route ALD
Aircraft DHC6/L-SDFGR/C

Departure

Time 2026-05-07 21:10
Airport Guernsey Airport (EGJB)

Arrival

Time 2026-05-07 21:24
Airport Alderney Airport (EGJA)
Time Latitude Longitude Altitude Speed Heading
2026-05-07 20:53 49.43248 -2.59622 334 ft 0 kts 178°
2026-05-07 21:01 49.43272 -2.59623 333 ft 12 kts 179°
2026-05-07 21:01 49.43292 -2.59622 333 ft 8 kts 182°
2026-05-07 21:01 49.43315 -2.59620 333 ft 3 kts 182°
2026-05-07 21:02 49.43314 -2.59621 333 ft 0 kts 195°
2026-05-07 21:02 49.43321 -2.59631 333 ft 5 kts 353°
2026-05-07 21:02 49.43361 -2.59678 332 ft 12 kts 267°
2026-05-07 21:03 49.43344 -2.59850 329 ft 19 kts 266°
2026-05-07 21:03 49.43339 -2.60092 324 ft 25 kts 268°
2026-05-07 21:03 49.43330 -2.60384 316 ft 29 kts 268°
2026-05-07 21:03 49.43338 -2.60692 308 ft 28 kts 282°
2026-05-07 21:04 49.43363 -2.60960 303 ft 10 kts 270°
2026-05-07 21:04 49.43361 -2.61031 301 ft 0 kts 269°
2026-05-07 21:07 49.43361 -2.61038 301 ft 3 kts 270°
2026-05-07 21:07 49.43361 -2.61131 300 ft 12 kts 268°
2026-05-07 21:07 49.43360 -2.61214 299 ft 0 kts 272°
2026-05-07 21:08 49.43362 -2.61241 299 ft 5 kts 288°
2026-05-07 21:08 49.43393 -2.61311 298 ft 10 kts 310°
2026-05-07 21:08 49.43463 -2.61344 298 ft 11 kts 39°
2026-05-07 21:09 49.43470 -2.61314 298 ft 0 kts 86°
2026-05-07 21:09 49.43470 -2.61310 298 ft 0 kts 85°
2026-05-07 21:10 49.43471 -2.61271 299 ft 29 kts 89°
2026-05-07 21:10 49.43473 -2.60580 705 ft 67 kts 98°
2026-05-07 21:10 49.43441 -2.59878 1166 ft 84 kts 92°
2026-05-07 21:11 49.43751 -2.58990 1616 ft 109 kts 44°
2026-05-07 21:11 49.44428 -2.58384 2145 ft 117 kts 36°
2026-05-07 21:11 49.45916 -2.56869 2921 ft 147 kts 37°
2026-05-07 21:12 49.46820 -2.55964 2948 ft 161 kts 37°
2026-05-07 21:12 49.47787 -2.55010 2948 ft 169 kts 36°
2026-05-07 21:12 49.48787 -2.54043 2944 ft 168 kts 35°
2026-05-07 21:12 49.49761 -2.53127 2944 ft 164 kts 34°
2026-05-07 21:13 49.50735 -2.52235 2944 ft 162 kts 33°
2026-05-07 21:13 49.51709 -2.51365 2945 ft 161 kts 33°
2026-05-07 21:13 49.52683 -2.50517 2946 ft 160 kts 32°
2026-05-07 21:13 49.53656 -2.49691 2944 ft 160 kts 31°
2026-05-07 21:14 49.54636 -2.48880 2944 ft 160 kts 31°
2026-05-07 21:14 49.55626 -2.48081 2946 ft 160 kts 30°
2026-05-07 21:14 49.56603 -2.47280 2942 ft 158 kts 38°
2026-05-07 21:14 49.57280 -2.46010 2947 ft 154 kts 56°
2026-05-07 21:15 49.57993 -2.44802 2829 ft 153 kts 47°
2026-05-07 21:15 49.58810 -2.43716 2607 ft 154 kts 43°
2026-05-07 21:15 49.59663 -2.42715 2416 ft 154 kts 40°
2026-05-07 21:15 49.60622 -2.42018 2208 ft 160 kts
2026-05-07 21:16 49.61734 -2.42159 2022 ft 162 kts 353°
2026-05-07 21:16 49.62828 -2.42466 1955 ft 157 kts 352°
2026-05-07 21:16 49.63891 -2.42773 1949 ft 153 kts 352°
2026-05-07 21:16 49.64928 -2.43073 1948 ft 151 kts 352°
2026-05-07 21:17 49.65956 -2.43371 1950 ft 149 kts 352°
2026-05-07 21:17 49.66966 -2.43548 1941 ft 140 kts 13°
2026-05-07 21:17 49.67742 -2.42865 1946 ft 123 kts 55°
2026-05-07 21:17 49.68087 -2.41706 1951 ft 115 kts 77°
2026-05-07 21:18 49.68292 -2.40541 1952 ft 112 kts 80°
2026-05-07 21:18 49.68462 -2.39385 1951 ft 110 kts 82°
2026-05-07 21:18 49.68621 -2.38217 1951 ft 110 kts 83°
2026-05-07 21:18 49.68771 -2.37083 1948 ft 102 kts 83°
2026-05-07 21:19 49.68899 -2.36099 1944 ft 86 kts 84°
2026-05-07 21:19 49.69005 -2.35256 1953 ft 77 kts 85°
2026-05-07 21:19 49.69109 -2.34376 2012 ft 83 kts 85°
2026-05-07 21:19 49.69214 -2.33519 2017 ft 82 kts 85°
2026-05-07 21:20 49.69320 -2.32662 1923 ft 80 kts 85°
2026-05-07 21:20 49.69423 -2.31822 1759 ft 77 kts 85°
2026-05-07 21:20 49.69519 -2.31054 1621 ft 69 kts 86°
2026-05-07 21:20 49.69604 -2.30347 1451 ft 66 kts 85°
2026-05-07 21:21 49.69691 -2.29623 1245 ft 67 kts 85°
2026-05-07 21:21 49.69777 -2.28909 1050 ft 67 kts 84°
2026-05-07 21:21 49.69863 -2.28202 892 ft 68 kts 84°
2026-05-07 21:21 49.69949 -2.27484 866 ft 67 kts 84°
2026-05-07 21:22 49.70035 -2.26775 852 ft 66 kts 84°
2026-05-07 21:22 49.70119 -2.26073 811 ft 65 kts 84°
2026-05-07 21:22 49.70204 -2.25375 729 ft 66 kts 84°
2026-05-07 21:22 49.70288 -2.24681 660 ft 65 kts 84°
2026-05-07 21:23 49.70373 -2.23983 583 ft 65 kts 83°
2026-05-07 21:23 49.70456 -2.23300 509 ft 65 kts 83°
2026-05-07 21:23 49.70542 -2.22604 402 ft 65 kts 81°
2026-05-07 21:23 49.70619 -2.21936 299 ft 54 kts 76°
2026-05-07 21:24 49.70645 -2.21697 299 ft 3 kts 79°
2026-05-07 21:24 49.70646 -2.21691 299 ft 0 kts 80°
2026-05-07 21:24 49.70650 -2.21656 299 ft 8 kts 80°
2026-05-07 21:24 49.70678 -2.21543 299 ft 12 kts 18°
2026-05-07 21:25 49.70777 -2.21554 299 ft 15 kts 54°
2026-05-07 21:25 49.70803 -2.21467 299 ft 2 kts 66°
2026-05-07 21:25 49.70807 -2.21452 299 ft 2 kts 65°
2026-05-07 21:25 49.70834 -2.21405 299 ft 7 kts
2026-05-07 21:26 49.70864 -2.21428 299 ft 0 kts 254°